KUCY/UCY METAR and TAF weather

Enter ICAO airport designator
Station Type Date Time Source
KUCY METAR 2021/07/29 01:35 UTC NOAA

KUCY 290135Z AUTO 00000KT 8SM CLR 27/26 A3000 RMK A01


Station Type Date Time Source
KUCY Decoded METAR 2021/07/29 01:35 UTC NOAA

Station name not available
Jul 28, 2021 - 09:35 PM EDT / 2021.07.29 0135 UTC
Wind: Calm:0
Visibility: 8 mile(s):0
Sky conditions: clear
Temperature: 80 F (27 C)
Dew Point: 78 F (26 C)
Relative Humidity: 94%
Pressure (altimeter): 30 in. Hg (1015 hPa)
ob: KUCY 290135Z AUTO 00000KT 8SM CLR 27/26 A3000 RMK A01
cycle: 1

Station Type Date Time Source
KUCY TAF UTC NOAA

Error!

Example: see airport list